Time;durP1;ratioP1;P1;durP2;ratioP2;P2;SDS_P1;SDS_P2;PMS_P1;PMS_P2;Temp;Humidity;BMP_temperature;BMP_pressure;BME280_temperature;BME280_humidity;BME280_pressure;Samples;Min_cycle;Max_cycle;Signal;HPM_P1;HPM_P2
2023/01/06 00:01:22;;;;;;;7.00;5.80;;;;;;;;;;5059191;28;20048;-88
2023/01/06 00:03:51;;;;;;;8.68;5.28;;;;;;;;;;5067952;28;20051;-88
2023/01/06 00:06:26;;;;;;;6.22;5.60;;;;;;;;;;5079958;28;20045;-88
2023/01/06 00:08:59;;;;;;;7.85;5.70;;;;;;;;;;5062908;28;20056;-88
2023/01/06 00:11:27;;;;;;;5.15;4.55;;;;;;;;;;5073142;28;20059;-88
2023/01/06 00:13:56;;;;;;;9.80;4.80;;;;;;;;;;5066923;28;20057;-88
2023/01/06 00:16:24;;;;;;;5.93;5.00;;;;;;;;;;5072452;28;20059;-89
2023/01/06 00:18:55;;;;;;;7.55;4.18;;;;;;;;;;5065407;28;20041;-88
2023/01/06 00:21:26;;;;;;;6.38;5.15;;;;;;;;;;5035809;28;20056;-89
2023/01/06 00:23:56;;;;;;;5.63;4.63;;;;;;;;;;5040850;28;20433;-86
2023/01/06 00:26:26;;;;;;;15.73;6.13;;;;;;;;;;5065316;28;20044;-87
2023/01/06 00:28:57;;;;;;;10.27;4.28;;;;;;;;;;5062049;28;20445;-87
2023/01/06 00:31:27;;;;;;;6.18;4.72;;;;;;;;;;5069194;28;20056;-87
2023/01/06 00:33:56;;;;;;;5.93;4.15;;;;;;;;;;5056486;28;20052;-87
2023/01/06 00:36:25;;;;;;;10.40;4.32;;;;;;;;;;5049954;28;20500;-87
2023/01/06 00:38:52;;;;;;;11.57;4.28;;;;;;;;;;5052552;28;20057;-87
2023/01/06 00:44:07;;;;;;;4.55;3.97;;;;;;;;;;5056496;28;20044;-87
2023/01/06 00:46:36;;;;;;;5.57;4.10;;;;;;;;;;5058795;28;20047;-86
2023/01/06 00:49:05;;;;;;;5.40;4.07;;;;;;;;;;5046145;28;20055;-88
2023/01/06 00:51:36;;;;;;;6.78;3.33;;;;;;;;;;5056167;28;20128;-88
2023/01/06 00:54:04;;;;;;;7.32;3.60;;;;;;;;;;5064910;28;20059;-88
2023/01/06 00:56:36;;;;;;;6.78;3.60;;;;;;;;;;5041921;28;20048;-87
2023/01/06 00:59:03;;;;;;;4.95;3.45;;;;;;;;;;5040389;28;20052;-88
2023/01/06 01:01:34;;;;;;;4.60;3.33;;;;;;;;;;5061316;28;20032;-88
2023/01/06 01:04:01;;;;;;;7.05;4.63;;;;;;;;;;5071160;28;20045;-88
2023/01/06 01:06:29;;;;;;;4.45;3.63;;;;;;;;;;5037607;28;20045;-88
2023/01/06 01:08:57;;;;;;;6.40;3.83;;;;;;;;;;5028531;28;20052;-89
2023/01/06 01:14:18;;;;;;;4.72;4.15;;;;;;;;;;5050496;28;20053;-88
2023/01/06 01:16:46;;;;;;;5.78;4.15;;;;;;;;;;5055402;28;20041;-88
2023/01/06 01:19:15;;;;;;;4.78;3.70;;;;;;;;;;5037346;28;20511;-88
2023/01/06 01:21:43;;;;;;;7.47;3.72;;;;;;;;;;5060821;28;20049;-88
2023/01/06 01:24:10;;;;;;;4.32;3.92;;;;;;;;;;5050076;28;20052;-88
2023/01/06 01:26:38;;;;;;;5.57;3.60;;;;;;;;;;5063121;28;20049;-88
2023/01/06 01:29:05;;;;;;;5.00;3.78;;;;;;;;;;5049785;28;20044;-88
2023/01/06 01:31:36;;;;;;;3.20;2.90;;;;;;;;;;5051402;28;20056;-88
2023/01/06 01:34:03;;;;;;;3.58;2.50;;;;;;;;;;5057507;28;20036;-88
2023/01/06 01:36:31;;;;;;;6.22;3.92;;;;;;;;;;5054292;28;20048;-88
2023/01/06 01:38:59;;;;;;;3.72;3.17;;;;;;;;;;5050860;28;20422;-88
2023/01/06 01:41:27;;;;;;;6.30;3.33;;;;;;;;;;5033490;28;20045;-88
2023/01/06 01:44:00;;;;;;;4.25;2.88;;;;;;;;;;5051912;28;20045;-87
2023/01/06 01:46:30;;;;;;;3.33;2.83;;;;;;;;;;5038405;28;20076;-88
2023/01/06 01:49:00;;;;;;;5.13;2.90;;;;;;;;;;5052754;28;20053;-88
2023/01/06 01:51:30;;;;;;;5.18;2.97;;;;;;;;;;5032941;28;20049;-88
2023/01/06 01:54:00;;;;;;;4.55;2.50;;;;;;;;;;5054721;28;20486;-88
2023/01/06 01:56:32;;;;;;;6.90;3.40;;;;;;;;;;5055241;28;20064;-88
2023/01/06 01:59:03;;;;;;;4.22;3.40;;;;;;;;;;5067946;28;20502;-88
2023/01/06 02:01:31;;;;;;;4.65;3.50;;;;;;;;;;5043851;28;20045;-88
2023/01/06 02:04:00;;;;;;;4.80;3.38;;;;;;;;;;5034611;28;20048;-88
2023/01/06 02:06:29;;;;;;;3.70;2.92;;;;;;;;;;5074728;28;20201;-88
2023/01/06 02:09:01;;;;;;;7.53;3.25;;;;;;;;;;5039652;28;20048;-88
2023/01/06 02:11:32;;;;;;;3.85;3.35;;;;;;;;;;5046965;28;20426;-88
2023/01/06 02:14:07;;;;;;;3.35;2.72;;;;;;;;;;5032936;28;20052;-88
2023/01/06 02:16:48;;;;;;;5.07;2.80;;;;;;;;;;5049692;28;20041;-88
2023/01/06 02:19:38;;;;;;;4.13;2.80;;;;;;;;;;5059565;28;20059;-88
2023/01/06 02:22:18;;;;;;;4.32;3.10;;;;;;;;;;5034452;28;20045;-88
2023/01/06 02:25:18;;;;;;;3.63;2.70;;;;;;;;;;5057468;28;20044;-88
2023/01/06 02:28:22;;;;;;;3.28;2.80;;;;;;;;;;5043918;28;20061;-88
2023/01/06 02:31:16;;;;;;;10.50;4.07;;;;;;;;;;5052977;28;20045;-88
2023/01/06 02:33:46;;;;;;;5.43;2.70;;;;;;;;;;5040478;28;20052;-88
2023/01/06 02:36:20;;;;;;;3.75;2.83;;;;;;;;;;5060793;28;20049;-88
2023/01/06 02:39:02;;;;;;;3.30;2.92;;;;;;;;;;5032247;28;20387;-88
2023/01/06 02:41:33;;;;;;;4.30;3.00;;;;;;;;;;5057804;28;20502;-88
2023/01/06 02:44:07;;;;;;;4.60;3.85;;;;;;;;;;5048740;28;20041;-88
2023/01/06 02:46:52;;;;;;;5.68;4.45;;;;;;;;;;5040106;28;20396;-87
2023/01/06 02:49:27;;;;;;;5.13;3.28;;;;;;;;;;5048192;28;20049;-87
2023/01/06 02:51:59;;;;;;;6.88;3.50;;;;;;;;;;5033992;28;20052;-87
2023/01/06 02:54:33;;;;;;;3.70;3.00;;;;;;;;;;5053844;28;20406;-88
2023/01/06 02:57:07;;;;;;;5.30;4.43;;;;;;;;;;5044730;28;20672;-88
2023/01/06 02:59:38;;;;;;;3.97;3.53;;;;;;;;;;5027787;28;20435;-88
2023/01/06 03:02:09;;;;;;;6.35;3.75;;;;;;;;;;5032560;28;20044;-88
2023/01/06 03:04:39;;;;;;;4.18;3.03;;;;;;;;;;5049853;28;20048;-88
2023/01/06 03:07:07;;;;;;;7.50;3.55;;;;;;;;;;5033065;28;20048;-88
2023/01/06 03:09:38;;;;;;;4.75;2.95;;;;;;;;;;5039167;28;20041;-88
2023/01/06 03:12:12;;;;;;;4.18;3.22;;;;;;;;;;5028619;28;20045;-88
2023/01/06 03:14:45;;;;;;;3.80;3.42;;;;;;;;;;5049251;28;20053;-88
2023/01/06 03:17:15;;;;;;;4.05;3.20;;;;;;;;;;5055178;28;20418;-87
2023/01/06 03:19:43;;;;;;;5.40;2.92;;;;;;;;;;5031749;28;20387;-88
2023/01/06 03:22:12;;;;;;;4.38;3.55;;;;;;;;;;5045420;28;20036;-87
2023/01/06 03:24:42;;;;;;;3.45;2.75;;;;;;;;;;5027122;28;20049;-88
2023/01/06 03:27:10;;;;;;;4.07;3.78;;;;;;;;;;5023957;28;20446;-87
2023/01/06 03:29:39;;;;;;;3.88;2.55;;;;;;;;;;5042702;28;20468;-88
2023/01/06 03:32:16;;;;;;;4.07;3.33;;;;;;;;;;5049854;28;20407;-88
2023/01/06 03:34:53;;;;;;;4.03;2.72;;;;;;;;;;5058400;28;20544;-87
2023/01/06 03:37:26;;;;;;;3.58;2.95;;;;;;;;;;5052775;28;20421;-87
2023/01/06 03:40:00;;;;;;;4.88;3.38;;;;;;;;;;5065538;28;20037;-88
2023/01/06 03:45:31;;;;;;;3.95;3.30;;;;;;;;;;5053158;22;20049;-85
2023/01/06 03:48:05;;;;;;;4.32;3.00;;;;;;;;;;5027907;28;20045;-84
2023/01/06 03:50:37;;;;;;;3.58;2.80;;;;;;;;;;5032770;28;20060;-84
2023/01/06 03:53:17;;;;;;;3.75;2.80;;;;;;;;;;5012170;28;20053;-85
2023/01/06 03:55:47;;;;;;;2.95;2.53;;;;;;;;;;5008532;28;20049;-84
2023/01/06 03:58:19;;;;;;;5.40;3.17;;;;;;;;;;5009589;28;20053;-84
2023/01/06 04:00:50;;;;;;;3.15;2.60;;;;;;;;;;5002252;28;20065;-84
2023/01/06 04:03:23;;;;;;;3.20;2.13;;;;;;;;;;5005878;28;20462;-84
2023/01/06 04:05:50;;;;;;;4.47;2.83;;;;;;;;;;5010337;28;20045;-84
2023/01/06 04:08:21;;;;;;;2.90;2.30;;;;;;;;;;4997348;28;20046;-85
2023/01/06 04:10:49;;;;;;;3.67;2.58;;;;;;;;;;4988307;28;20057;-84
2023/01/06 04:13:16;;;;;;;3.38;2.53;;;;;;;;;;5015307;28;20052;-84
2023/01/06 04:15:45;;;;;;;3.58;2.20;;;;;;;;;;5015746;28;20042;-83
2023/01/06 04:18:15;;;;;;;4.13;2.80;;;;;;;;;;5009507;28;20052;-84
2023/01/06 04:20:45;;;;;;;4.40;2.47;;;;;;;;;;4989121;28;20062;-84
2023/01/06 04:23:17;;;;;;;2.97;2.42;;;;;;;;;;5023316;28;20057;-84
2023/01/06 04:25:45;;;;;;;2.50;2.03;;;;;;;;;;5012322;28;20128;-84
2023/01/06 04:28:30;;;;;;;4.70;2.95;;;;;;;;;;5017562;28;20037;-85
2023/01/06 04:30:58;;;;;;;2.40;2.20;;;;;;;;;;5006106;28;20423;-85
2023/01/06 04:33:28;;;;;;;3.28;2.30;;;;;;;;;;5007864;28;20046;-85
2023/01/06 04:36:01;;;;;;;3.70;2.63;;;;;;;;;;4993283;28;20057;-84
2023/01/06 04:38:29;;;;;;;4.03;2.65;;;;;;;;;;5007437;28;20046;-85
2023/01/06 04:40:59;;;;;;;3.58;2.22;;;;;;;;;;4997258;28;20060;-85
2023/01/06 04:43:26;;;;;;;3.33;2.42;;;;;;;;;;5006922;28;20053;-84
2023/01/06 04:45:53;;;;;;;3.17;1.80;;;;;;;;;;5013147;28;20053;-85
2023/01/06 04:48:20;;;;;;;2.42;2.22;;;;;;;;;;5030389;28;20064;-85
2023/01/06 04:50:48;;;;;;;2.53;1.65;;;;;;;;;;4990435;28;20060;-84
2023/01/06 04:53:16;;;;;;;3.50;2.13;;;;;;;;;;5006309;28;20057;-84
2023/01/06 04:55:43;;;;;;;2.50;2.03;;;;;;;;;;5006268;28;20054;-84
2023/01/06 04:58:13;;;;;;;3.97;2.15;;;;;;;;;;5011487;28;20392;-85
2023/01/06 05:00:40;;;;;;;2.25;1.77;;;;;;;;;;4999117;28;20057;-84
2023/01/06 05:03:10;;;;;;;1.77;1.67;;;;;;;;;;4990568;28;20042;-84
2023/01/06 05:05:38;;;;;;;3.22;1.63;;;;;;;;;;4989692;28;20060;-84
2023/01/06 05:08:05;;;;;;;3.40;2.10;;;;;;;;;;5007064;28;20050;-84
2023/01/06 05:10:33;;;;;;;8.27;2.47;;;;;;;;;;5012714;28;20049;-84
2023/01/06 05:13:01;;;;;;;3.95;2.85;;;;;;;;;;5028925;28;20064;-84
2023/01/06 05:15:30;;;;;;;3.78;3.08;;;;;;;;;;5003815;28;20042;-84
2023/01/06 05:17:59;;;;;;;3.33;2.30;;;;;;;;;;5013087;28;20065;-84
2023/01/06 05:20:27;;;;;;;3.05;2.75;;;;;;;;;;5003123;28;20407;-84
2023/01/06 05:22:56;;;;;;;3.70;3.10;;;;;;;;;;4992596;28;20049;-85
2023/01/06 05:25:24;;;;;;;3.70;3.35;;;;;;;;;;5028183;28;20500;-84
2023/01/06 05:27:55;;;;;;;8.18;2.95;;;;;;;;;;5008540;28;20049;-84
2023/01/06 05:30:22;;;;;;;4.53;3.67;;;;;;;;;;4994091;28;20049;-84
2023/01/06 05:32:51;;;;;;;5.20;3.65;;;;;;;;;;5024059;28;20048;-85
2023/01/06 05:35:21;;;;;;;4.68;3.58;;;;;;;;;;5018491;28;20049;-84
2023/01/06 05:37:48;;;;;;;4.57;3.53;;;;;;;;;;5028023;28;20053;-85
2023/01/06 05:40:15;;;;;;;4.30;3.47;;;;;;;;;;4995570;28;20045;-84
2023/01/06 05:42:47;;;;;;;3.90;3.30;;;;;;;;;;5028082;28;20053;-85
2023/01/06 05:45:15;;;;;;;3.50;2.85;;;;;;;;;;5025043;28;20048;-85
2023/01/06 05:47:43;;;;;;;3.97;3.30;;;;;;;;;;5013170;28;20045;-85
2023/01/06 05:50:10;;;;;;;5.43;3.00;;;;;;;;;;5030772;28;20045;-85
2023/01/06 05:52:37;;;;;;;4.63;3.20;;;;;;;;;;5030343;28;20045;-85
2023/01/06 05:55:10;;;;;;;3.47;3.17;;;;;;;;;;5022909;28;20045;-84
2023/01/06 05:57:37;;;;;;;3.38;2.65;;;;;;;;;;5030257;28;20484;-84
2023/01/06 06:00:05;;;;;;;4.47;3.28;;;;;;;;;;5023782;28;20049;-85
2023/01/06 06:02:40;;;;;;;6.40;3.42;;;;;;;;;;5025433;28;20404;-85
2023/01/06 06:05:08;;;;;;;4.32;3.35;;;;;;;;;;5024553;28;20045;-84
2023/01/06 06:07:37;;;;;;;4.20;3.40;;;;;;;;;;5010472;28;20496;-85
2023/01/06 06:10:08;;;;;;;4.30;3.13;;;;;;;;;;4993888;28;20415;-84
2023/01/06 06:12:35;;;;;;;6.10;3.40;;;;;;;;;;4994251;28;20056;-85
2023/01/06 06:15:03;;;;;;;5.10;3.72;;;;;;;;;;5008637;28;20045;-85
2023/01/06 06:17:31;;;;;;;3.83;3.38;;;;;;;;;;5024314;28;20056;-84
2023/01/06 06:20:02;;;;;;;4.22;3.80;;;;;;;;;;5013101;28;20049;-85
2023/01/06 06:22:29;;;;;;;3.45;3.10;;;;;;;;;;4997789;28;20045;-84
2023/01/06 06:24:56;;;;;;;5.00;2.55;;;;;;;;;;4996958;28;20050;-84
2023/01/06 06:27:26;;;;;;;5.55;3.03;;;;;;;;;;5031409;28;20048;-85
2023/01/06 06:29:53;;;;;;;4.25;2.85;;;;;;;;;;5004898;28;20057;-85
2023/01/06 06:32:20;;;;;;;4.05;3.58;;;;;;;;;;5022635;28;20045;-85
2023/01/06 06:34:50;;;;;;;3.78;2.45;;;;;;;;;;5005158;28;20053;-84
2023/01/06 06:37:21;;;;;;;6.55;2.70;;;;;;;;;;5002505;28;20045;-84
2023/01/06 06:39:50;;;;;;;4.38;2.60;;;;;;;;;;5005015;28;20053;-84
2023/01/06 06:42:20;;;;;;;5.82;3.25;;;;;;;;;;5028468;28;20053;-84
2023/01/06 06:44:47;;;;;;;6.15;2.15;;;;;;;;;;4995422;28;20076;-84
2023/01/06 06:47:17;;;;;;;3.50;2.60;;;;;;;;;;5004706;28;20049;-84
2023/01/06 06:49:44;;;;;;;3.90;2.75;;;;;;;;;;5014050;28;20053;-85
2023/01/06 06:52:11;;;;;;;3.90;2.40;;;;;;;;;;5012123;28;20522;-84
2023/01/06 06:54:42;;;;;;;6.72;2.88;;;;;;;;;;5008226;28;20053;-84
2023/01/06 06:57:09;;;;;;;4.53;2.30;;;;;;;;;;5010137;28;20242;-85
2023/01/06 06:59:39;;;;;;;2.97;2.50;;;;;;;;;;5026341;28;20045;-85
2023/01/06 07:02:06;;;;;;;2.67;2.22;;;;;;;;;;5001507;28;20049;-84
2023/01/06 07:04:33;;;;;;;6.00;2.22;;;;;;;;;;5010913;28;20526;-84
2023/01/06 07:07:03;;;;;;;2.97;2.20;;;;;;;;;;5007475;28;20052;-84
2023/01/06 07:09:32;;;;;;;3.83;2.28;;;;;;;;;;4994758;28;20053;-84
2023/01/06 07:12:04;;;;;;;4.00;2.75;;;;;;;;;;5007661;28;21724;-85
2023/01/06 07:55:02;;;;;;;2.55;1.70;;;;;;;;;;4818598;29;20069;-83
2023/01/06 07:58:24;;;;;;;;;;;;;;;;;;;;;
2023/01/06 08:01:34;;;;;;;2.70;0.90;;;;;;;;;;4842466;29;20044;-83
2023/01/06 08:08:50;;;;;;;1.70;0.73;;;;;;;;;;4951510;28;20442;-83
2023/01/06 08:12:04;;;;;;;;;;;;;;;;;;;;;
2023/01/06 08:15:49;;;;;;;;;;;;;;;;;;;;;
2023/01/06 08:18:45;;;;;;;1.20;0.80;;;;;;;;;;4981242;28;20046;-83
2023/01/06 08:26:10;;;;;;;;;;;;;;;;;;;;;
2023/01/06 09:30:57;;;;;;;2.55;1.52;;;;;;;;;;6140761;22;1276943;-88
2023/01/06 09:33:25;;;;;;;3.25;1.90;;;;;;;;;;6130430;23;20026;-88
2023/01/06 09:35:52;;;;;;;20.45;14.85;;;;;;;;;;6110199;23;20028;-89
2023/01/06 09:38:22;;;;;;;12.52;10.55;;;;;;;;;;6109058;23;20041;-88
2023/01/06 09:41:05;;;;;;;5.97;4.38;;;;;;;;;;6108679;23;20025;-89
2023/01/06 09:43:42;;;;;;;2.10;1.42;;;;;;;;;;6108196;23;20040;-88
2023/01/06 10:23:00;;;;;;;2.78;0.95;;;;;;;;;;6137703;23;20028;-94
2023/01/06 10:25:54;;;;;;;7.97;2.38;;;;;;;;;;6114229;23;20028;-93
2023/01/06 10:28:31;;;;;;;3.85;2.15;;;;;;;;;;6107374;23;20017;-95
2023/01/06 10:31:01;;;;;;;4.20;1.20;;;;;;;;;;6109954;23;20028;-93
2023/01/06 10:33:34;;;;;;;1.80;1.00;;;;;;;;;;6108790;23;20017;-95
2023/01/06 10:36:12;;;;;;;6.53;1.58;;;;;;;;;;6135650;23;20028;-94
2023/01/06 10:38:44;;;;;;;3.28;1.30;;;;;;;;;;6110441;23;20024;-94
2023/01/06 10:41:22;;;;;;;1.80;0.80;;;;;;;;;;6110589;23;20021;-95
2023/01/06 10:43:51;;;;;;;1.23;1.13;;;;;;;;;;6110142;23;20014;-94
2023/01/06 10:46:22;;;;;;;1.33;1.23;;;;;;;;;;6116541;23;20017;-95
2023/01/06 10:48:59;;;;;;;1.50;0.90;;;;;;;;;;6119615;23;20025;-94
2023/01/06 10:51:34;;;;;;;0.80;0.70;;;;;;;;;;6125601;23;20457;-95
2023/01/06 10:54:15;;;;;;;2.15;1.20;;;;;;;;;;6117015;23;20020;-93
2023/01/06 10:56:50;;;;;;;1.20;0.93;;;;;;;;;;6119219;23;20006;-92
2023/01/06 10:59:21;;;;;;;1.52;0.82;;;;;;;;;;6114713;23;20172;-93
2023/01/06 11:01:53;;;;;;;0.80;0.70;;;;;;;;;;6108753;23;20029;-92
2023/01/06 11:04:28;;;;;;;0.98;0.80;;;;;;;;;;6108325;23;20028;-93
2023/01/06 11:06:58;;;;;;;0.80;0.60;;;;;;;;;;6107123;23;20017;-92
2023/01/06 11:09:35;;;;;;;2.20;1.25;;;;;;;;;;6106188;23;20361;-93
2023/01/06 11:12:08;;;;;;;1.95;1.40;;;;;;;;;;6107340;23;20022;-93
2023/01/06 11:14:36;;;;;;;2.15;0.88;;;;;;;;;;6112126;23;20018;-93
2023/01/06 11:17:10;;;;;;;1.83;0.90;;;;;;;;;;6105822;23;20017;-94
2023/01/06 11:20:09;;;;;;;1.67;0.85;;;;;;;;;;6107495;23;20025;-93
2023/01/06 11:22:39;;;;;;;1.15;0.63;;;;;;;;;;6143536;23;20017;-94
2023/01/06 11:25:31;;;;;;;1.17;0.70;;;;;;;;;;6133752;23;20362;-92
2023/01/06 11:28:20;;;;;;;1.60;0.80;;;;;;;;;;6108617;23;20048;-94
2023/01/06 11:31:04;;;;;;;1.30;0.90;;;;;;;;;;6108837;23;20369;-92
2023/01/06 11:33:38;;;;;;;1.25;0.65;;;;;;;;;;6106884;23;20546;-94
2023/01/06 11:36:09;;;;;;;0.82;0.82;;;;;;;;;;6125990;23;20028;-94
2023/01/06 11:38:44;;;;;;;0.68;0.55;;;;;;;;;;6155378;23;20004;-93
2023/01/06 11:41:26;;;;;;;1.63;0.77;;;;;;;;;;6116446;23;20043;-94
2023/01/06 11:43:58;;;;;;;2.90;0.73;;;;;;;;;;6115720;23;20025;-94
2023/01/06 11:46:29;;;;;;;0.80;0.80;;;;;;;;;;6113801;23;20024;-92
2023/01/06 11:49:03;;;;;;;1.35;1.13;;;;;;;;;;6084647;23;20028;-93
2023/01/06 11:51:32;;;;;;;3.83;0.70;;;;;;;;;;6109545;23;20021;-92
2023/01/06 11:54:01;;;;;;;2.75;0.80;;;;;;;;;;6107877;23;20021;-93
2023/01/06 11:56:32;;;;;;;1.45;0.82;;;;;;;;;;6110777;23;20019;-95
2023/01/06 11:59:05;;;;;;;0.98;0.88;;;;;;;;;;6134547;23;20014;-94
2023/01/06 12:01:40;;;;;;;1.53;0.70;;;;;;;;;;6134709;23;20017;-93
2023/01/06 12:04:14;;;;;;;2.20;1.00;;;;;;;;;;6109622;23;20018;-92
2023/01/06 12:06:45;;;;;;;2.35;1.10;;;;;;;;;;6133986;23;20014;-94
2023/01/06 12:09:17;;;;;;;2.03;0.63;;;;;;;;;;6106808;23;20024;-93
2023/01/06 12:11:51;;;;;;;1.57;1.10;;;;;;;;;;6133763;23;20020;-92
2023/01/06 12:14:24;;;;;;;4.60;0.70;;;;;;;;;;6107412;23;20017;-92
2023/01/06 12:17:08;;;;;;;2.53;1.20;;;;;;;;;;6106053;23;20017;-91
2023/01/06 12:19:43;;;;;;;7.60;1.83;;;;;;;;;;6106918;23;20037;-92
2023/01/06 12:22:25;;;;;;;3.25;1.60;;;;;;;;;;6128822;23;20036;-94
2023/01/06 12:24:56;;;;;;;0.95;0.85;;;;;;;;;;6133871;23;20013;-93
2023/01/06 12:27:42;;;;;;;2.05;0.98;;;;;;;;;;6131940;23;20024;-93
2023/01/06 12:30:16;;;;;;;2.70;1.00;;;;;;;;;;6135281;23;20018;-93
2023/01/06 12:32:51;;;;;;;1.02;0.80;;;;;;;;;;6137545;23;20029;-93
2023/01/06 12:35:24;;;;;;;0.63;0.60;;;;;;;;;;6142211;23;20017;-93
2023/01/06 12:37:56;;;;;;;2.15;0.90;;;;;;;;;;6134110;23;20360;-94
2023/01/06 12:40:32;;;;;;;1.73;1.33;;;;;;;;;;6134244;23;20018;-94
2023/01/06 12:43:03;;;;;;;;;;;;;;;;;;6143241;23;20026;-93
2023/01/06 12:45:36;;;;;;;1.95;1.13;;;;;;;;;;6148149;23;19910;-93
2023/01/06 12:48:17;;;;;;;5.15;1.05;;;;;;;;;;6153044;23;20021;-93
2023/01/06 12:50:52;;;;;;;0.60;0.57;;;;;;;;;;6148615;23;20024;-92
2023/01/06 12:53:26;;;;;;;0.90;0.55;;;;;;;;;;6145365;23;20029;-93
2023/01/06 12:56:27;;;;;;;1.40;0.63;;;;;;;;;;6136215;23;20350;-94
2023/01/06 12:59:06;;;;;;;2.38;0.80;;;;;;;;;;6137955;23;20039;-95
2023/01/06 13:01:41;;;;;;;0.80;0.80;;;;;;;;;;6136229;23;20027;-92
2023/01/06 13:04:33;;;;;;;1.70;0.80;;;;;;;;;;6134512;23;20022;-94
2023/01/06 13:07:11;;;;;;;1.27;0.75;;;;;;;;;;6130868;23;20025;-95
2023/01/06 13:09:58;;;;;;;5.43;0.70;;;;;;;;;;6136234;23;20028;-95
2023/01/06 13:12:54;;;;;;;1.80;0.68;;;;;;;;;;6134834;23;20021;-93
2023/01/06 13:15:27;;;;;;;1.30;0.55;;;;;;;;;;6131285;23;20021;-94
2023/01/06 13:18:04;;;;;;;0.93;0.55;;;;;;;;;;6134672;23;20022;-93
2023/01/06 13:20:35;;;;;;;1.05;0.75;;;;;;;;;;6132651;23;20018;-94
2023/01/06 13:23:16;;;;;;;0.60;0.60;;;;;;;;;;6132160;23;20424;-95
2023/01/06 13:26:04;;;;;;;2.20;0.70;;;;;;;;;;6131234;23;20021;-93
2023/01/06 13:28:41;;;;;;;1.50;0.70;;;;;;;;;;6133314;23;20457;-92
2023/01/06 13:31:32;;;;;;;1.15;0.60;;;;;;;;;;6132761;23;20022;-94
2023/01/06 13:34:19;;;;;;;1.60;0.50;;;;;;;;;;6131712;23;20017;-94
2023/01/06 13:37:26;;;;;;;1.23;0.77;;;;;;;;;;6158114;23;20017;-95
2023/01/06 13:39:59;;;;;;;1.15;0.80;;;;;;;;;;6022556;23;20033;-93
2023/01/06 13:42:37;;;;;;;1.00;0.75;;;;;;;;;;6021254;23;20019;-93
2023/01/06 13:45:13;;;;;;;1.17;0.70;;;;;;;;;;6087019;23;20498;-93
2023/01/06 13:47:51;;;;;;;0.60;0.60;;;;;;;;;;6134763;23;20025;-96
2023/01/06 13:50:20;;;;;;;0.90;0.70;;;;;;;;;;6135450;23;20026;-96
2023/01/06 13:52:54;;;;;;;1.27;0.90;;;;;;;;;;6135343;23;20489;-95
2023/01/06 13:55:37;;;;;;;2.35;0.80;;;;;;;;;;6133896;23;20032;-94
2023/01/06 13:58:37;;;;;;;0.73;0.70;;;;;;;;;;6159088;23;20032;-91
2023/01/06 14:01:11;;;;;;;1.92;1.15;;;;;;;;;;6133426;23;20021;-92
2023/01/06 14:03:45;;;;;;;1.65;1.10;;;;;;;;;;6135316;23;20033;-93
2023/01/06 14:06:44;;;;;;;2.65;0.95;;;;;;;;;;6169832;23;20013;-93
2023/01/06 14:09:17;;;;;;;1.92;1.00;;;;;;;;;;6133862;23;20476;-91
2023/01/06 14:11:46;;;;;;;3.40;0.95;;;;;;;;;;6134574;23;20017;-96
2023/01/06 14:14:25;;;;;;;0.93;0.73;;;;;;;;;;6131684;23;20476;-93
2023/01/06 14:16:54;;;;;;;0.70;0.60;;;;;;;;;;6132912;23;20028;-95
2023/01/06 14:19:28;;;;;;;2.42;1.48;;;;;;;;;;6133448;23;20021;-95
2023/01/06 14:22:13;;;;;;;1.00;0.90;;;;;;;;;;6131636;23;20430;-95
2023/01/06 14:24:43;;;;;;;1.55;0.98;;;;;;;;;;6134181;23;20028;-92
2023/01/06 14:27:13;;;;;;;1.10;0.97;;;;;;;;;;6140913;23;20017;-92
2023/01/06 14:30:17;;;;;;;0.88;0.68;;;;;;;;;;6143843;23;20241;-95
2023/01/06 14:33:23;;;;;;;3.30;0.80;;;;;;;;;;6141436;23;20018;-94
2023/01/06 14:36:01;;;;;;;2.20;0.95;;;;;;;;;;6169509;23;20024;-95
2023/01/06 14:38:33;;;;;;;1.27;1.17;;;;;;;;;;6141004;23;20032;-96
2023/01/06 14:41:03;;;;;;;1.30;1.20;;;;;;;;;;6134447;23;20013;-95
2023/01/06 14:43:45;;;;;;;2.75;1.73;;;;;;;;;;6132942;23;20366;-94
2023/01/06 14:46:17;;;;;;;2.35;0.90;;;;;;;;;;6133761;23;20024;-95
2023/01/06 14:48:55;;;;;;;1.23;1.02;;;;;;;;;;6139325;23;20025;-95
2023/01/06 14:51:25;;;;;;;3.10;1.20;;;;;;;;;;6149651;23;20021;-94
2023/01/06 14:54:03;;;;;;;1.85;0.90;;;;;;;;;;6148180;23;20028;-94
2023/01/06 14:56:37;;;;;;;1.00;0.77;;;;;;;;;;6147090;23;20028;-95
2023/01/06 14:59:06;;;;;;;3.85;1.73;;;;;;;;;;6149579;23;20023;-94
2023/01/06 15:04:24;;;;;;;4.50;2.75;;;;;;;;;;6131160;23;20017;-95
2023/01/06 15:07:14;;;;;;;8.52;4.70;;;;;;;;;;6131653;23;20073;-96
2023/01/06 15:09:48;;;;;;;4.53;2.58;;;;;;;;;;6130086;23;20017;-95
2023/01/06 15:12:54;;;;;;;3.85;2.13;;;;;;;;;;6128920;23;20476;-93
2023/01/06 15:15:30;;;;;;;9.40;5.68;;;;;;;;;;6132932;23;20476;-96
2023/01/06 15:18:02;;;;;;;5.28;2.33;;;;;;;;;;6131466;23;20024;-96
2023/01/06 15:20:34;;;;;;;4.80;2.80;;;;;;;;;;6131981;23;20473;-96
2023/01/06 15:23:07;;;;;;;2.38;2.00;;;;;;;;;;6130656;23;20021;-92
2023/01/06 15:25:38;;;;;;;1.95;1.40;;;;;;;;;;6130708;23;20017;-95
2023/01/06 15:28:06;;;;;;;1.80;1.23;;;;;;;;;;6129658;23;20054;-94
2023/01/06 15:30:35;;;;;;;1.10;1.00;;;;;;;;;;6130315;23;20044;-93
2023/01/06 15:33:17;;;;;;;2.85;1.33;;;;;;;;;;6154236;23;20357;-95
2023/01/06 15:35:48;;;;;;;1.30;1.20;;;;;;;;;;6132384;23;20377;-93
2023/01/06 15:38:27;;;;;;;2.03;1.92;;;;;;;;;;6131848;23;20022;-93
2023/01/06 15:40:58;;;;;;;2.85;1.60;;;;;;;;;;6130721;23;20013;-95
2023/01/06 15:43:27;;;;;;;3.05;1.95;;;;;;;;;;6132709;23;20027;-94
2023/01/06 15:52:25;;;;;;;1.70;1.00;;;;;;;;;;6168666;23;20021;-89
2023/01/06 15:54:55;;;;;;;2.17;1.77;;;;;;;;;;6209496;23;20024;-90
2023/01/06 15:57:23;;;;;;;2.08;1.20;;;;;;;;;;6209209;23;20480;-90
2023/01/06 15:59:54;;;;;;;2.17;1.35;;;;;;;;;;6183891;23;20031;-94
2023/01/06 16:02:26;;;;;;;2.53;2.17;;;;;;;;;;6185714;23;20020;-90
2023/01/06 16:04:59;;;;;;;5.85;4.45;;;;;;;;;;6210373;23;20036;-91
2023/01/06 16:07:46;;;;;;;8.55;5.95;;;;;;;;;;6185845;23;20020;-91
2023/01/06 16:10:36;;;;;;;2.80;2.13;;;;;;;;;;6164046;23;20016;-92
2023/01/06 16:13:28;;;;;;;4.75;4.15;;;;;;;;;;6208869;23;20027;-90
2023/01/06 16:16:00;;;;;;;7.82;4.10;;;;;;;;;;6210163;23;20016;-91
2023/01/06 16:18:33;;;;;;;2.78;1.75;;;;;;;;;;6160853;23;20021;-88
2023/01/06 16:21:14;;;;;;;1.50;1.25;;;;;;;;;;6195722;23;20020;-92
2023/01/06 16:23:47;;;;;;;2.55;1.30;;;;;;;;;;6205358;23;20015;-91
2023/01/06 16:26:27;;;;;;;2.33;1.50;;;;;;;;;;6178118;23;20514;-92
2023/01/06 16:28:57;;;;;;;3.08;1.33;;;;;;;;;;6199108;23;20026;-92
2023/01/06 16:37:18;;;;;;;2.30;0.90;;;;;;;;;;6183631;23;20043;-93
2023/01/06 16:39:46;;;;;;;1.88;1.50;;;;;;;;;;6210795;23;20436;-92
2023/01/06 16:45:19;;;;;;;2.13;1.30;;;;;;;;;;6184988;23;20069;-92
2023/01/06 16:47:50;;;;;;;3.90;1.83;;;;;;;;;;6185571;23;20028;-91
2023/01/06 16:50:21;;;;;;;2.03;1.60;;;;;;;;;;6184245;23;20027;-92
2023/01/06 16:53:06;;;;;;;2.72;1.27;;;;;;;;;;6184700;23;20396;-93
2023/01/06 16:55:34;;;;;;;1.37;1.10;;;;;;;;;;6186160;23;20043;-92
2023/01/06 16:58:09;;;;;;;1.98;1.52;;;;;;;;;;6208382;23;20012;-90
2023/01/06 17:00:38;;;;;;;1.30;1.10;;;;;;;;;;6183979;23;20107;-92
2023/01/06 17:03:22;;;;;;;1.15;0.98;;;;;;;;;;6210095;23;20016;-92
2023/01/06 17:05:50;;;;;;;;;;;;;;;;;;6161531;23;20464;-91
2023/01/06 17:08:22;;;;;;;1.20;1.00;;;;;;;;;;6185858;23;19920;-91
2023/01/06 17:10:51;;;;;;;1.55;1.27;;;;;;;;;;6187055;23;20016;-91
2023/01/06 17:13:38;;;;;;;2.63;2.05;;;;;;;;;;6187213;23;20048;-91
2023/01/06 17:16:15;;;;;;;6.80;2.10;;;;;;;;;;6188199;23;20047;-92
2023/01/06 17:18:54;;;;;;;3.58;2.30;;;;;;;;;;6187514;23;20028;-92
2023/01/06 17:21:24;;;;;;;2.40;0.90;;;;;;;;;;6189705;23;20013;-93
2023/01/06 17:23:57;;;;;;;1.85;1.10;;;;;;;;;;6190452;23;20024;-92
2023/01/06 17:26:26;;;;;;;1.42;1.10;;;;;;;;;;6190999;23;20017;-91
2023/01/06 17:28:57;;;;;;;1.90;1.42;;;;;;;;;;6190354;23;20019;-93
2023/01/06 17:31:31;;;;;;;2.30;1.52;;;;;;;;;;6211204;23;20039;-92
2023/01/06 17:34:06;;;;;;;1.75;1.60;;;;;;;;;;6211274;23;20519;-93
2023/01/06 17:36:38;;;;;;;3.08;2.13;;;;;;;;;;6215640;23;20080;-93
2023/01/06 17:39:14;;;;;;;2.22;2.03;;;;;;;;;;6216500;23;20052;-94
2023/01/06 17:41:45;;;;;;;3.10;1.70;;;;;;;;;;6218273;23;20056;-95
2023/01/06 17:44:17;;;;;;;2.38;2.00;;;;;;;;;;6215878;23;20054;-91
2023/01/06 17:46:45;;;;;;;2.45;1.85;;;;;;;;;;6209675;23;20035;-91
2023/01/06 17:49:34;;;;;;;2.08;1.52;;;;;;;;;;6199426;23;20453;-90
2023/01/06 17:52:13;;;;;;;6.82;4.22;;;;;;;;;;6210360;23;20005;-91
2023/01/06 17:57:27;;;;;;;3.78;1.90;;;;;;;;;;6211766;23;20005;-92
2023/01/06 17:59:56;;;;;;;3.50;1.88;;;;;;;;;;6211833;23;20176;-92
2023/01/06 18:02:37;;;;;;;1.80;1.55;;;;;;;;;;6188602;23;20016;-92
2023/01/06 18:05:55;;;;;;;2.80;1.48;;;;;;;;;;6182620;23;20586;-92
2023/01/06 18:08:25;;;;;;;3.30;1.20;;;;;;;;;;6155360;23;20024;-91
2023/01/06 18:10:57;;;;;;;1.95;1.80;;;;;;;;;;6180268;23;20024;-92
2023/01/06 18:13:30;;;;;;;2.05;1.60;;;;;;;;;;6180869;23;20024;-91
2023/01/06 18:16:01;;;;;;;1.63;1.52;;;;;;;;;;6181754;23;20027;-92
2023/01/06 18:18:33;;;;;;;4.07;1.20;;;;;;;;;;6186146;23;20023;-92
2023/01/06 18:21:21;;;;;;;1.83;1.23;;;;;;;;;;6187144;23;20021;-92
2023/01/06 18:23:52;;;;;;;1.20;1.10;;;;;;;;;;6187300;23;20020;-91
2023/01/06 18:26:34;;;;;;;1.45;1.15;;;;;;;;;;6187245;23;20025;-92
2023/01/06 18:29:06;;;;;;;5.15;1.20;;;;;;;;;;6187619;23;20019;-91